createdAt,value
2024-02-05T00:02:33.093Z,11.30
2024-02-05T00:07:36.415Z,11.06
2024-02-05T00:12:39.487Z,10.96
2024-02-05T00:17:42.464Z,11.10
2024-02-05T00:22:46.507Z,11.22
2024-02-05T00:27:49.424Z,11.04
2024-02-05T00:32:53.745Z,11.10
2024-02-05T00:37:58.529Z,11.10
2024-02-05T00:43:01.526Z,11.16
2024-02-05T00:48:04.961Z,11.19
2024-02-05T00:53:07.912Z,11.16
2024-02-05T00:58:10.858Z,10.95
2024-02-05T01:03:15.934Z,11.19
2024-02-05T01:08:18.904Z,10.91
2024-02-05T01:13:21.808Z,11.04
2024-02-05T01:18:25.061Z,11.21
2024-02-05T01:23:28.015Z,11.30
2024-02-05T01:28:30.968Z,10.45
2024-02-05T01:33:33.823Z,10.47
2024-02-05T01:38:36.842Z,11.02
2024-02-05T01:43:39.661Z,11.25
2024-02-05T01:48:44.396Z,11.17
2024-02-05T01:53:51.489Z,11.35
2024-02-05T01:58:55.069Z,11.18
2024-02-05T02:03:59.097Z,11.05
2024-02-05T02:09:03.239Z,10.79
2024-02-05T02:14:06.188Z,10.95
2024-02-05T02:19:23.702Z,10.84
2024-02-05T02:24:27.548Z,11.05
2024-02-05T02:29:30.556Z,10.95
2024-02-05T02:34:36.041Z,10.34
2024-02-05T02:39:49.168Z,10.34
2024-02-05T02:44:55.444Z,10.64
2024-02-05T02:49:58.291Z,11.40
2024-02-05T02:55:01.183Z,11.69
2024-02-05T03:00:06.862Z,10.47
2024-02-05T03:05:09.826Z,9.46
2024-02-05T03:10:12.690Z,10.52
2024-02-05T03:15:15.620Z,10.53
2024-02-05T03:20:35.785Z,11.10
2024-02-05T03:25:40.469Z,11.16
2024-02-05T03:30:44.619Z,10.64
2024-02-05T03:35:47.545Z,11.14
2024-02-05T03:40:50.383Z,11.28
2024-02-05T03:45:53.236Z,11.45
2024-02-05T03:50:56.361Z,11.11
2024-02-05T03:55:59.958Z,11.29
2024-02-05T04:01:02.822Z,11.21
2024-02-05T04:06:05.885Z,11.15
2024-02-05T04:11:09.231Z,11.25
2024-02-05T04:16:15.698Z,11.00
2024-02-05T04:21:18.632Z,10.70
2024-02-05T04:26:21.486Z,10.65
2024-02-05T04:31:24.355Z,10.29
2024-02-05T04:36:28.043Z,10.62
2024-02-05T04:41:30.857Z,10.85
2024-02-05T04:46:34.505Z,11.06
2024-02-05T04:51:37.718Z,11.05
2024-02-05T04:56:40.602Z,9.76
2024-02-05T05:01:43.534Z,10.41
2024-02-05T05:06:47.083Z,10.44
2024-02-05T05:11:50.051Z,10.06
2024-02-05T05:16:52.890Z,9.58
2024-02-05T05:21:56.247Z,10.06
2024-02-05T05:26:59.986Z,10.38
2024-02-05T05:32:02.843Z,9.95
2024-02-05T05:37:05.740Z,9.87
2024-02-05T05:42:09.426Z,10.03
2024-02-05T05:47:12.294Z,8.99
2024-02-05T05:52:15.262Z,9.86
2024-02-05T05:57:18.297Z,10.32
2024-02-05T06:02:21.166Z,8.51
2024-02-05T06:07:24.009Z,8.69
2024-02-05T06:12:26.833Z,9.84
2024-02-05T06:17:29.664Z,10.26
2024-02-05T06:22:33.481Z,8.93
2024-02-05T06:27:36.296Z,8.93
2024-02-05T06:32:39.377Z,9.67
2024-02-05T06:37:42.682Z,9.90
2024-02-05T06:42:47.648Z,10.02
2024-02-05T06:47:53.656Z,10.03
2024-02-05T06:52:57.415Z,8.42
2024-02-05T06:58:02.215Z,9.44
2024-02-05T07:03:07.188Z,10.08
2024-02-05T07:08:17.969Z,9.23
2024-02-05T07:13:23.027Z,8.20
2024-02-05T07:18:29.869Z,9.60
2024-02-05T07:23:33.349Z,10.21
2024-02-05T07:28:38.864Z,8.87
2024-02-05T07:33:47.096Z,8.66
2024-02-05T07:38:53.877Z,10.10
2024-02-05T07:43:57.724Z,9.85
2024-02-05T07:49:01.606Z,8.35
2024-02-05T07:54:08.706Z,9.77
2024-02-05T07:59:13.317Z,8.74
2024-02-05T08:04:20.046Z,9.45
2024-02-05T08:09:23.072Z,9.77
2024-02-05T08:14:26.385Z,8.82
2024-02-05T08:19:33.831Z,9.85
2024-02-05T08:24:38.521Z,8.67
2024-02-05T08:29:42.178Z,9.66
2024-02-05T08:34:45.564Z,9.00
2024-02-05T08:39:48.768Z,9.31
2024-02-05T08:49:55.897Z,8.72
2024-02-05T08:54:59.089Z,9.55
2024-02-05T09:00:05.659Z,8.35
2024-02-05T09:05:08.882Z,9.31
2024-02-05T09:10:12.348Z,9.53
2024-02-05T09:15:15.963Z,8.51
2024-02-05T09:20:19.031Z,10.12
2024-02-05T09:25:21.974Z,9.32
2024-02-05T09:30:25.442Z,8.80
2024-02-05T09:35:28.641Z,9.69
2024-02-05T09:40:32.198Z,8.58
2024-02-05T09:45:38.379Z,10.03
2024-02-05T09:50:42.380Z,9.14
2024-02-05T09:55:47.384Z,8.75
2024-02-05T10:00:52.360Z,9.91
2024-02-05T10:05:59.252Z,8.63
2024-02-05T10:11:04.876Z,9.18
2024-02-05T10:16:08.777Z,9.71
2024-02-05T10:21:11.897Z,8.45
2024-02-05T10:26:15.398Z,7.80
2024-02-05T10:31:19.531Z,8.07
2024-02-05T10:36:22.716Z,8.95
2024-02-05T10:41:25.735Z,7.96
2024-02-05T10:46:34.035Z,7.46
2024-02-05T10:51:40.745Z,7.22
2024-02-05T10:56:47.829Z,7.05
2024-02-05T11:01:59.871Z,6.96
2024-02-05T11:07:10.036Z,6.97
2024-02-05T11:12:14.823Z,7.04
2024-02-05T11:17:23.199Z,7.15
2024-02-05T11:22:27.010Z,7.23
2024-02-05T11:27:31.077Z,7.31
2024-02-05T11:32:35.224Z,7.43
2024-02-05T11:37:39.429Z,7.53
2024-02-05T11:42:44.468Z,7.66
2024-02-05T11:47:57.369Z,7.67
2024-02-05T11:53:04.731Z,7.62
2024-02-05T11:58:10.020Z,7.71
2024-02-05T12:03:14.213Z,7.72
2024-02-05T12:08:19.973Z,7.75
2024-02-05T12:13:23.712Z,7.87
2024-02-05T12:18:26.881Z,7.88
2024-02-05T12:23:30.109Z,7.90
2024-02-05T12:28:33.424Z,7.84
2024-02-05T12:33:36.774Z,7.92
2024-02-05T12:38:41.055Z,7.87
2024-02-05T12:43:46.270Z,7.77
2024-02-05T12:48:50.589Z,7.70
2024-02-05T12:53:53.792Z,7.61
2024-02-05T12:58:56.794Z,7.54
2024-02-05T13:04:00.344Z,7.40
2024-02-05T13:09:04.556Z,7.36
2024-02-05T13:14:09.508Z,7.35
2024-02-05T13:19:13.022Z,7.29
2024-02-05T13:24:18.583Z,7.18
2024-02-05T13:29:27.127Z,7.16
2024-02-05T13:34:31.597Z,7.10
2024-02-05T13:39:35.457Z,7.12
2024-02-05T13:44:38.548Z,7.02
2024-02-05T13:49:42.075Z,6.95
2024-02-05T13:54:45.085Z,6.85
2024-02-05T13:59:49.327Z,6.72
2024-02-05T14:04:52.535Z,6.63
2024-02-05T14:09:56.065Z,6.60
2024-02-05T14:14:59.358Z,6.56
2024-02-05T14:20:03.524Z,6.50
2024-02-05T14:25:09.421Z,6.42
2024-02-05T14:30:12.684Z,6.35
2024-02-05T14:35:17.367Z,6.28
2024-02-05T14:40:20.550Z,6.18
2024-02-05T14:45:23.491Z,6.11
2024-02-05T14:50:26.839Z,6.05
2024-02-05T14:55:33.427Z,6.00
2024-02-05T15:00:37.214Z,5.95
2024-02-05T15:05:40.723Z,5.86
2024-02-05T15:10:44.268Z,5.79
2024-02-05T15:15:47.504Z,5.72
2024-02-05T15:20:50.577Z,5.71
2024-02-05T15:25:53.855Z,5.62
2024-02-05T15:31:00.581Z,5.49
2024-02-05T15:36:05.149Z,5.40
2024-02-05T15:41:08.369Z,5.32
2024-02-05T15:46:11.536Z,7.08
2024-02-05T15:51:15.363Z,7.96
2024-02-05T15:56:20.247Z,6.75
2024-02-05T16:01:31.501Z,6.05
2024-02-05T16:06:39.240Z,7.71
2024-02-05T16:11:42.177Z,7.48
2024-02-05T16:16:45.928Z,6.21
2024-02-05T16:21:49.736Z,6.64
2024-02-05T16:26:53.613Z,7.61
2024-02-05T16:31:58.595Z,6.35
2024-02-05T16:37:01.658Z,5.64
2024-02-05T16:42:05.074Z,6.32
2024-02-05T16:47:08.173Z,7.00
2024-02-05T16:52:11.083Z,6.03
2024-02-05T16:57:14.215Z,5.49
2024-02-05T17:02:17.526Z,5.16
2024-02-05T17:07:20.673Z,5.47
2024-02-05T17:12:24.853Z,7.16
2024-02-05T17:17:28.591Z,6.18
2024-02-05T17:22:31.649Z,5.37
2024-02-05T17:27:34.541Z,6.47
2024-02-05T17:32:37.610Z,7.60
2024-02-05T17:37:41.124Z,6.16
2024-02-05T17:42:44.018Z,5.37
2024-02-05T17:47:46.951Z,6.98
2024-02-05T17:52:52.552Z,7.07
2024-02-05T17:57:55.380Z,5.75
2024-02-05T18:03:00.378Z,7.12
2024-02-05T18:08:03.976Z,7.89
2024-02-05T18:13:08.195Z,6.27
2024-02-05T18:18:11.224Z,6.21
2024-02-05T18:23:14.390Z,7.99
2024-02-05T18:28:17.584Z,6.68
2024-02-05T18:33:20.664Z,6.82
2024-02-05T18:38:24.029Z,8.74
2024-02-05T18:43:27.205Z,7.83
2024-02-05T18:48:30.994Z,7.38
2024-02-05T18:53:34.185Z,8.62
2024-02-05T18:58:38.986Z,7.03
2024-02-05T19:03:42.915Z,7.15
2024-02-05T19:08:45.968Z,8.93
2024-02-05T19:13:48.971Z,7.73
2024-02-05T19:18:52.123Z,6.88
2024-02-05T19:23:55.169Z,8.71
2024-02-05T19:28:59.711Z,7.48
2024-02-05T19:34:03.045Z,6.83
2024-02-05T19:39:08.766Z,8.67
2024-02-05T19:44:11.603Z,8.39
2024-02-05T19:49:14.556Z,6.61
2024-02-05T19:54:17.478Z,7.94
2024-02-05T19:59:21.400Z,8.29
2024-02-05T20:04:24.792Z,6.39
2024-02-05T20:09:29.357Z,6.90
2024-02-05T20:14:33.507Z,8.62
2024-02-05T20:19:36.812Z,7.45
2024-02-05T20:24:39.897Z,6.54
2024-02-05T20:29:42.808Z,8.35
2024-02-05T20:34:45.672Z,8.13
2024-02-05T20:39:48.941Z,6.24
2024-02-05T20:44:52.062Z,7.55
2024-02-05T20:49:55.235Z,8.45
2024-02-05T20:55:00.272Z,6.41
2024-02-05T21:00:03.918Z,6.41
2024-02-05T21:05:07.698Z,8.39
2024-02-05T21:10:11.436Z,8.08
2024-02-05T21:15:15.120Z,5.85
2024-02-05T21:20:20.088Z,6.37
2024-02-05T21:25:23.326Z,8.15
2024-02-05T21:30:26.524Z,8.64
2024-02-05T21:35:29.555Z,6.70
2024-02-05T21:40:35.952Z,5.79
2024-02-05T21:45:39.018Z,7.64
2024-02-05T21:50:41.809Z,8.61
2024-02-05T21:55:45.217Z,7.06
2024-02-05T22:00:48.385Z,6.30
2024-02-05T22:05:51.393Z,8.09
2024-02-05T22:10:54.240Z,8.11
2024-02-05T22:15:57.118Z,5.98
2024-02-05T22:21:00.545Z,6.45
2024-02-05T22:26:03.516Z,8.22
2024-02-05T22:31:06.508Z,8.10
2024-02-05T22:36:10.579Z,5.94
2024-02-05T22:41:13.452Z,6.19
2024-02-05T22:46:16.298Z,8.13
2024-02-05T22:51:19.178Z,8.07
2024-02-05T22:56:22.105Z,6.02
2024-02-05T23:01:25.032Z,6.57
2024-02-05T23:06:28.937Z,8.36
2024-02-05T23:11:31.830Z,7.78
2024-02-05T23:16:35.116Z,5.95
2024-02-05T23:21:38.217Z,7.31
2024-02-05T23:26:42.589Z,8.51
2024-02-05T23:31:47.051Z,6.72
2024-02-05T23:36:49.956Z,6.09
2024-02-05T23:41:52.882Z,8.05
2024-02-05T23:46:55.714Z,8.11
2024-02-05T23:51:58.609Z,6.11
2024-02-05T23:57:01.493Z,5.96
